Rio Bravo — D5BA9 — position and weather

sailwx.info

Track history (hours):
 
Tides and Currents Weather Stations Pressure Air Temp Water Temp Dewpoint Dewpoint Depression Visibility Wind Speed Wind Dir Waves Ship Positions

Rio Bravo

Last reported at 2018-Mar-19 00:00 UTC. Time now 2018-Jun-17 22:16 UTC.
Position N 36°18' W 008°06'.
Warning: this ship's position is months out of date.

Length 286 m; draft 11 m.

Type: Ship (hazmat cat D). MMSI: 636092361.

Wind from 310 at 15 knots

Barometer 1018.3 mb
Air temperature 15.0 ° C
Visibility: greater than 10.8 NM
Dewpoint 8.9 ° C
Water temperature 15.0 ° C

Date/timePositionNaut miles runAvg speedWind from/ knotsBaromVisibWave heightAir tempDewpointWater temp
2018-Mar-19 00:00N 36°18' W 008°06'44514.8 310 / 151018.310.8 15.0 8.915.0
2018-Mar-17 18:00N 43°36' W 009°48'   310 / 141002.810.8 11.8 4.311.0
2018-Mar-14 11:46N 53°30' E 009°56'0 0.0
2018-Mar-14 11:25N 53°30' E 009°56'0 0.0
2018-Mar-14 11:00N 53°30' E 009°56'0 0.0
2018-Mar-14 10:31N 53°30' E 009°56'0 0.0
2018-Mar-14 10:01N 53°30' E 009°56'0 0.0
2018-Mar-14 09:31N 53°30' E 009°56'0 0.6
2018-Mar-14 09:00N 53°30' E 009°56'3 5.7
2018-Mar-14 08:30N 53°32' E 009°54'4 7.5
2018-Mar-14 08:00N 53°33' E 009°48'4 8.6
2018-Mar-14 07:30N 53°34' E 009°41'5 9.9
2018-Mar-14 07:01N 53°37' E 009°34'4 8.7
2018-Mar-14 06:30N 53°41' E 009°30'510.1
2018-Mar-14 06:00N 53°45' E 009°25'510.4
2018-Mar-14 05:30N 53°49' E 009°22'611.5
2018-Mar-14 05:00N 53°53' E 009°13'4 8.7
2018-Mar-14 04:30N 53°53' E 009°06'4 8.6
2018-Mar-14 04:00N 53°51' E 008°59'611.8
2018-Mar-14 03:30N 53°50' E 008°49'4 8.8
2018-Mar-14 03:00N 53°53' E 008°43'3 6.2
2018-Mar-14 02:30N 53°55' E 008°40'3 6.6
2018-Mar-14 02:00N 53°57' E 008°36'5 9.9
2018-Mar-14 01:30N 53°59' E 008°28'5 9.5
2018-Mar-14 01:00N 53°60' E 008°20'511.0
2018-Mar-14 00:30N 53°60' E 008°11'612.1
2018-Mar-14 00:00N 53°59' E 008°00'611.2
2018-Mar-13 23:30N 53°58' E 007°51'612.3
2018-Mar-13 22:59N 53°56' E 007°41'714.9
2018-Mar-13 22:30N 53°55' E 007°29'2318.2
2018-Mar-13 21:15N 53°50' E 006°51'2817.4
2018-Mar-13 19:39N 53°42' E 006°06'517.8
2018-Mar-13 19:24N 53°40' E 005°58'2117.9
2018-Mar-13 18:13N 53°34' E 005°24'518.1
2018-Mar-13 17:56N 53°32' E 005°16'818.1
2018-Mar-13 17:30N 53°29' E 005°04'918.1
2018-Mar-13 17:00N 53°26' E 004°50'917.4
2018-Mar-13 16:30N 53°19' E 004°41'918.2
2018-Mar-13 16:00N 53°11' E 004°33'918.5
2018-Mar-13 15:30N 53°04' E 004°25'918.2
2018-Mar-13 15:00N 52°56' E 004°18'1019.8
2018-Mar-13 14:30N 52°47' E 004°10'1122.7
2018-Mar-13 14:01N 52°38' E 003°59'1223.2
2018-Mar-13 13:31N 52°30' E 003°45'1223.1
2018-Mar-13 13:01N 52°22' E 003°32'1223.3
2018-Mar-13 12:30N 52°14' E 003°18'3022.9
2018-Mar-13 11:11N 51°54' E 002°41'421.5
2018-Mar-13 11:00N 51°53' E 002°35'1121.4
2018-Mar-13 10:29N 51°52' E 002°17'1021.2
2018-Mar-13 10:01N 51°51' E 002°01'1019.5
2018-Mar-13 09:31N 51°49' E 001°45'815.2
2018-Mar-13 09:00N 51°52' E 001°34'612.7
2018-Mar-13 08:30N 51°56' E 001°25'5 9.2
2018-Mar-13 08:00N 51°57' E 001°18'1 1.3
2018-Mar-13 07:30N 51°58' E 001°18'0 0.0
2018-Mar-13 07:01N 51°58' E 001°18'0 0.0
2018-Mar-13 06:30N 51°58' E 001°18'0 0.0
2018-Mar-13 06:00N 51°58' E 001°18'0 0.0
2018-Mar-13 05:30N 51°58' E 001°18'0 0.0
2018-Mar-13 05:00N 51°58' E 001°18'0 0.0
2018-Mar-13 04:30N 51°58' E 001°18'0 0.0
2018-Mar-13 04:00N 51°58' E 001°18'0 0.0
2018-Mar-13 03:30N 51°58' E 001°18'0 0.0
2018-Mar-13 03:00N 51°58' E 001°18'0 0.0
2018-Mar-13 02:30N 51°58' E 001°18'0 0.0
2018-Mar-13 02:00N 51°58' E 001°18'0 0.0
2018-Mar-13 01:30N 51°58' E 001°18'0 0.0
2018-Mar-13 01:00N 51°58' E 001°18'0 0.0
2018-Mar-13 00:30N 51°58' E 001°18'0 0.0
2018-Mar-13 00:00N 51°58' E 001°18'0 0.0
2018-Mar-12 23:30N 51°58' E 001°18'0 0.0
2018-Mar-12 23:00N 51°58' E 001°18'0 0.0
2018-Mar-12 22:30N 51°58' E 001°18'0 0.0
2018-Mar-12 22:00N 51°58' E 001°18'0 0.0
2018-Mar-12 21:30N 51°58' E 001°18'0 0.0
2018-Mar-12 21:00N 51°58' E 001°18'0 0.0
2018-Mar-12 20:30N 51°58' E 001°18'0 0.0
2018-Mar-12 20:00N 51°58' E 001°18'0 0.0
2018-Mar-12 19:30N 51°58' E 001°18'0 0.0
2018-Mar-12 19:00N 51°58' E 001°18'0 0.0
2018-Mar-12 18:30N 51°58' E 001°18'0 0.0
2018-Mar-12 18:00N 51°58' E 001°18'0 0.0
2018-Mar-12 17:30N 51°58' E 001°18'0 0.0
2018-Mar-12 17:00N 51°58' E 001°18'0 0.0
2018-Mar-12 16:30N 51°58' E 001°18'0 0.0
2018-Mar-12 16:00N 51°58' E 001°18'0 0.0
2018-Mar-12 15:30N 51°58' E 001°18'0 0.0
2018-Mar-12 15:00N 51°58' E 001°18'0 0.0
2018-Mar-12 14:30N 51°58' E 001°18'0 0.0
2018-Mar-12 14:00N 51°58' E 001°18'0 0.0
2018-Mar-12 13:30N 51°58' E 001°18'0 0.0
2018-Mar-12 13:00N 51°58' E 001°18'0 0.0
2018-Mar-12 12:30N 51°58' E 001°18'0 0.0
2018-Mar-12 12:00N 51°58' E 001°18'0 0.0
2018-Mar-12 11:30N 51°58' E 001°18'0 0.0
2018-Mar-12 11:00N 51°58' E 001°18'0 0.0
2018-Mar-12 10:30N 51°58' E 001°18'0 0.0
2018-Mar-12 10:00N 51°58' E 001°18'0 0.0
2018-Mar-12 09:30N 51°58' E 001°18'0 0.0
2018-Mar-12 09:00N 51°58' E 001°18'0 0.0
2018-Mar-12 08:30N 51°58' E 001°18'0 0.0
2018-Mar-12 08:00N 51°58' E 001°18'0 0.0
2018-Mar-12 07:30N 51°58' E 001°18'0 0.0
2018-Mar-12 07:00N 51°58' E 001°18'0 0.0
2018-Mar-12 06:31N 51°58' E 001°18'0 0.0
2018-Mar-12 06:00N 51°58' E 001°18'0 0.0
2018-Mar-12 05:30N 51°58' E 001°18'0 0.0
2018-Mar-12 05:00N 51°58' E 001°18'0 0.0
2018-Mar-12 04:30N 51°58' E 001°18'0 0.0
2018-Mar-12 04:00N 51°58' E 001°18'0 0.0
2018-Mar-12 03:30N 51°58' E 001°18'0 0.0
2018-Mar-12 03:00N 51°58' E 001°18'0 0.0
2018-Mar-12 02:30N 51°58' E 001°18'0 0.0
2018-Mar-12 02:00N 51°58' E 001°18'0 0.0
2018-Mar-12 01:30N 51°58' E 001°18'0 0.0
2018-Mar-12 01:00N 51°58' E 001°18'0 0.0
2018-Mar-12 00:30N 51°58' E 001°18'0 0.0
2018-Mar-12 00:00N 51°58' E 001°18'0 0.0
2018-Mar-11 23:31N 51°58' E 001°18'0 0.0
2018-Mar-11 23:00N 51°58' E 001°18'0 0.0
2018-Mar-11 22:30N 51°58' E 001°18'0 0.0
2018-Mar-11 22:00N 51°58' E 001°18'0 0.0
2018-Mar-11 21:30N 51°58' E 001°18'0 0.0
2018-Mar-11 21:00N 51°58' E 001°18'0 0.0
2018-Mar-11 20:30N 51°58' E 001°18'0 0.0
2018-Mar-11 20:00N 51°58' E 001°18'0 0.0
2018-Mar-11 19:30N 51°58' E 001°18'0 0.0
2018-Mar-11 19:00N 51°58' E 001°18'0 0.7
2018-Mar-11 18:30N 51°57' E 001°18'3 5.4
2018-Mar-11 18:01N 51°56' E 001°21'714.4
2018-Mar-11 17:30N 51°56' E 001°33'5 9.5
2018-Mar-11 17:00N 51°52' E 001°36'2 4.3
2018-Mar-11 16:30N 51°52' E 001°39'3 5.9
2018-Mar-11 16:00N 51°54' E 001°43'1 1.6
2018-Mar-11 15:29N 51°54' E 001°42'0 0.1
2018-Mar-11 14:59N 51°54' E 001°42'0 0.0
2018-Mar-11 14:29N 51°54' E 001°42'0 0.1
2018-Mar-11 13:59N 51°54' E 001°42'0 0.0
2018-Mar-11 13:29N 51°54' E 001°42'0 0.1
2018-Mar-11 12:59N 51°54' E 001°42'0 0.2
2018-Mar-11 12:29N 51°54' E 001°42'0 0.1
2018-Mar-11 11:59N 51°54' E 001°42'0 0.1
2018-Mar-11 11:29N 51°54' E 001°42'0 0.0
2018-Mar-11 10:59N 51°54' E 001°42'0 0.1
2018-Mar-11 10:29N 51°54' E 001°42'0 0.0
2018-Mar-11 09:59N 51°54' E 001°42'0 0.0
2018-Mar-11 09:29N 51°54' E 001°42'0 0.0
2018-Mar-11 08:59N 51°54' E 001°42'0 0.1
2018-Mar-11 08:29N 51°54' E 001°42'0 0.0
2018-Mar-11 07:59N 51°54' E 001°42'0 0.2
2018-Mar-11 07:29N 51°54' E 001°42'0 0.3
2018-Mar-11 06:59N 51°54' E 001°42'0 0.1
2018-Mar-11 06:29N 51°54' E 001°42'0 0.1
2018-Mar-11 05:59N 51°54' E 001°42'0 0.0
2018-Mar-11 05:29N 51°54' E 001°42'0 0.0
2018-Mar-11 04:59N 51°54' E 001°42'0 0.0
2018-Mar-11 04:29N 51°54' E 001°42'0 0.0
2018-Mar-11 03:59N 51°54' E 001°42'0 0.0
2018-Mar-11 03:29N 51°54' E 001°42'0 0.1
2018-Mar-11 02:59N 51°54' E 001°42'0 0.1
2018-Mar-11 02:29N 51°54' E 001°42'1 2.2
2018-Mar-11 02:00N 51°53' E 001°43'4 8.3
2018-Mar-11 01:30N 51°50' E 001°48'5 9.6
2018-Mar-11 01:01N 51°46' E 001°49'5 9.8
2018-Mar-11 00:30N 51°41' E 001°50'5 9.7
2018-Mar-11 00:00N 51°36' E 001°51'5 9.5
2018-Mar-10 23:30N 51°32' E 001°56'5 9.4
2018-Mar-10 23:00N 51°28' E 001°60'5 9.7
2018-Mar-10 22:30N 51°24' E 002°04'5 9.3
2018-Mar-10 22:00N 51°22' E 002°11'5 9.0
2018-Mar-10 21:30N 51°21' E 002°18'4 8.4
2018-Mar-10 21:00N 51°22' E 002°24'4 8.1
2018-Mar-10 20:30N 51°23' E 002°30'4 8.4
2018-Mar-10 20:00N 51°23' E 002°37'4 8.4
2018-Mar-10 19:30N 51°22' E 002°44'510.8
2018-Mar-10 19:00N 51°23' E 002°52'816.2
2018-Mar-10 18:30N 51°24' E 003°05'816.5
2018-Mar-10 18:00N 51°24' E 003°18'816.0
2018-Mar-10 17:30N 51°25' E 003°31'713.0
2018-Mar-10 17:00N 51°26' E 003°41'611.7
2018-Mar-10 16:30N 51°21' E 003°47'612.5
2018-Mar-10 16:00N 51°23' E 003°57'4 8.1
2018-Mar-10 15:30N 51°25' E 004°02'510.3
2018-Mar-10 15:00N 51°23' E 004°10'4 8.5
2018-Mar-10 14:30N 51°21' E 004°16'0 0.5
2018-Mar-10 14:01N 51°21' E 004°16'0 0.0
2018-Mar-10 13:30N 51°21' E 004°16'0 0.0
2018-Mar-10 13:01N 51°21' E 004°16'0 0.0
2018-Mar-10 12:30N 51°21' E 004°16'0 0.0
2018-Mar-10 11:58N 51°21' E 004°16'0 0.0
2018-Mar-10 11:31N 51°21' E 004°16'0 0.0
2018-Mar-10 11:00N 51°21' E 004°16'0 0.0
2018-Mar-10 10:30N 51°21' E 004°16'0 0.0
2018-Mar-10 10:01N 51°21' E 004°16'0 0.0
2018-Mar-10 09:30N 51°21' E 004°16'0 0.0
2018-Mar-10 09:01N 51°21' E 004°16'0 0.0
2018-Mar-10 08:28N 51°21' E 004°16'0 0.0
2018-Mar-10 08:00N 51°21' E 004°16'0 0.0
2018-Mar-10 07:31N 51°21' E 004°16'0 0.0
2018-Mar-10 06:59N 51°21' E 004°16'0 0.0
2018-Mar-10 06:31N 51°21' E 004°16'0 0.0
2018-Mar-10 06:00N 51°21' E 004°16'0 0.0
2018-Mar-10 05:30N 51°21' E 004°16'0 0.0
2018-Mar-10 05:01N 51°21' E 004°16'0 0.0
2018-Mar-10 04:31N 51°21' E 004°16'0 0.0
2018-Mar-10 04:00N 51°21' E 004°16'0 0.0
2018-Mar-10 03:30N 51°21' E 004°16'0 0.0
2018-Mar-10 03:01N 51°21' E 004°16'0 0.0
2018-Mar-10 02:31N 51°21' E 004°16'0 0.0
2018-Mar-10 02:00N 51°21' E 004°16'0 0.0
2018-Mar-10 01:30N 51°21' E 004°16'0 0.0
2018-Mar-10 01:00N 51°21' E 004°16'0 0.0
2018-Mar-10 00:30N 51°21' E 004°16'0 0.0
2018-Mar-10 00:01N 51°21' E 004°16'0 0.0
2018-Mar-09 23:28N 51°21' E 004°16'0 0.0
2018-Mar-09 23:00N 51°21' E 004°16'0 0.0
2018-Mar-09 22:28N 51°21' E 004°16'0 0.0
2018-Mar-09 22:00N 51°21' E 004°16'0 0.0
2018-Mar-09 21:30N 51°21' E 004°16'0 0.0
2018-Mar-09 21:00N 51°21' E 004°16'0 0.0
2018-Mar-09 20:29N 51°21' E 004°16'0 0.0
2018-Mar-09 20:00N 51°21' E 004°16'0 0.0
2018-Mar-09 19:31N 51°21' E 004°16'0 0.0
2018-Mar-09 19:00N 51°21' E 004°16'0 0.0
2018-Mar-09 18:30N 51°21' E 004°16'0 0.0
2018-Mar-09 18:00N 51°21' E 004°16'0 0.9
2018-Mar-09 17:31N 51°21' E 004°15'4 7.7
2018-Mar-09 17:00N 51°24' E 004°10'611.1
2018-Mar-09 16:30N 51°25' E 004°02'611.7
2018-Mar-09 16:00N 51°21' E 003°54'714.6
2018-Mar-09 15:30N 51°23' E 003°43'611.0
2018-Mar-09 15:00N 51°26' E 003°35'713.8
2018-Mar-09 14:30N 51°24' E 003°24'917.4
2018-Mar-09 14:00N 51°24' E 003°10'816.7
2018-Mar-09 13:30N 51°25' E 002°57'815.3
2018-Mar-09 13:00N 51°24' E 002°45'611.8
2018-Mar-09 12:30N 51°22' E 002°36'1111.3
2018-Mar-09 11:30N 51°19' E 002°18'713.4
2018-Mar-09 11:00N 51°15' E 002°09'713.8
2018-Mar-09 10:30N 51°12' E 001°60'713.9
2018-Mar-09 10:00N 51°09' E 001°50'714.1
2018-Mar-09 09:31N 51°04' E 001°41'714.7
2018-Mar-09 09:01N 50°59' E 001°33'714.7
2018-Mar-09 08:31N 50°52' E 001°28'714.9
2018-Mar-09 08:01N 50°45' E 001°24'714.4
2018-Mar-09 07:31N 50°39' E 001°18'815.0
2018-Mar-09 07:01N 50°35' E 001°08'917.1
2018-Mar-09 06:30N 50°30' E 000°57'918.3
2018-Mar-09 06:01N 50°27' E 000°44'472821.1
2018-Mar-09 06:00N 50°24' W 000°30'3878.8 270 / 121004.410.8 7.6 5.4 7.0
2018-Mar-09 05:31N 50°25' E 000°30'918.2
2018-Mar-09 05:00N 50°22' E 000°16'918.3
2018-Mar-09 04:31N 50°20' E 000°02'918.5
2018-Mar-09 04:01N 50°18' W 000°12'918.7
2018-Mar-09 03:31N 50°16' W 000°26'1019.1
2018-Mar-09 03:01N 50°13' W 000°41'1019.5
2018-Mar-09 02:30N 50°11' W 000°56'1020.0
2018-Mar-09 02:01N 50°08' W 001°10'1120.4
2018-Mar-09 01:28N 50°05' W 001°27'1420.7
2018-Mar-09 00:46N 50°01' W 001°49'621.1
2018-Mar-09 00:28N 49°59' W 001°58'  
Track history (hours):
 
Tides and Currents Weather Stations Pressure Air Temp Water Temp Dewpoint Dewpoint Depression Visibility Wind Speed Wind Dir Waves Ship Positions

Rio Bravo

Last reported at 2018-Mar-19 00:00 UTC. Time now 2018-Jun-17 22:16 UTC.
Position N 36°18' W 008°06'.
Warning: this ship's position is months out of date.

Length 286 m; draft 11 m.

Type: Ship (hazmat cat D). MMSI: 636092361.

Wind from 310 at 15 knots

Barometer 1018.3 mb
Air temperature 15.0 ° C
Visibility: greater than 10.8 NM
Dewpoint 8.9 ° C
Water temperature 15.0 ° C

Date/timePositionNaut miles runAvg speedWind from/ knotsBaromVisibWave heightAir tempDewpointWater temp
2018-Mar-19 00:00N 36°18' W 008°06'44514.8 310 / 151018.310.8 15.0 8.915.0
2018-Mar-17 18:00N 43°36' W 009°48'   310 / 141002.810.8 11.8 4.311.0
2018-Mar-14 11:46N 53°30' E 009°56'0 0.0
2018-Mar-14 11:25N 53°30' E 009°56'0 0.0
2018-Mar-14 11:00N 53°30' E 009°56'0 0.0
2018-Mar-14 10:31N 53°30' E 009°56'0 0.0
2018-Mar-14 10:01N 53°30' E 009°56'0 0.0
2018-Mar-14 09:31N 53°30' E 009°56'0 0.6
2018-Mar-14 09:00N 53°30' E 009°56'3 5.7
2018-Mar-14 08:30N 53°32' E 009°54'4 7.5
2018-Mar-14 08:00N 53°33' E 009°48'4 8.6
2018-Mar-14 07:30N 53°34' E 009°41'5 9.9
2018-Mar-14 07:01N 53°37' E 009°34'4 8.7
2018-Mar-14 06:30N 53°41' E 009°30'510.1
2018-Mar-14 06:00N 53°45' E 009°25'510.4
2018-Mar-14 05:30N 53°49' E 009°22'611.5
2018-Mar-14 05:00N 53°53' E 009°13'4 8.7
2018-Mar-14 04:30N 53°53' E 009°06'4 8.6
2018-Mar-14 04:00N 53°51' E 008°59'611.8
2018-Mar-14 03:30N 53°50' E 008°49'4 8.8
2018-Mar-14 03:00N 53°53' E 008°43'3 6.2
2018-Mar-14 02:30N 53°55' E 008°40'3 6.6
2018-Mar-14 02:00N 53°57' E 008°36'5 9.9
2018-Mar-14 01:30N 53°59' E 008°28'5 9.5
2018-Mar-14 01:00N 53°60' E 008°20'511.0
2018-Mar-14 00:30N 53°60' E 008°11'612.1
2018-Mar-14 00:00N 53°59' E 008°00'611.2
2018-Mar-13 23:30N 53°58' E 007°51'612.3
2018-Mar-13 22:59N 53°56' E 007°41'714.9
2018-Mar-13 22:30N 53°55' E 007°29'2318.2
2018-Mar-13 21:15N 53°50' E 006°51'2817.4
2018-Mar-13 19:39N 53°42' E 006°06'517.8
2018-Mar-13 19:24N 53°40' E 005°58'2117.9
2018-Mar-13 18:13N 53°34' E 005°24'518.1
2018-Mar-13 17:56N 53°32' E 005°16'818.1
2018-Mar-13 17:30N 53°29' E 005°04'918.1
2018-Mar-13 17:00N 53°26' E 004°50'917.4
2018-Mar-13 16:30N 53°19' E 004°41'918.2
2018-Mar-13 16:00N 53°11' E 004°33'918.5
2018-Mar-13 15:30N 53°04' E 004°25'918.2
2018-Mar-13 15:00N 52°56' E 004°18'1019.8
2018-Mar-13 14:30N 52°47' E 004°10'1122.7
2018-Mar-13 14:01N 52°38' E 003°59'1223.2
2018-Mar-13 13:31N 52°30' E 003°45'1223.1
2018-Mar-13 13:01N 52°22' E 003°32'1223.3
2018-Mar-13 12:30N 52°14' E 003°18'3022.9
2018-Mar-13 11:11N 51°54' E 002°41'421.5
2018-Mar-13 11:00N 51°53' E 002°35'1121.4
2018-Mar-13 10:29N 51°52' E 002°17'1021.2
2018-Mar-13 10:01N 51°51' E 002°01'1019.5
2018-Mar-13 09:31N 51°49' E 001°45'815.2
2018-Mar-13 09:00N 51°52' E 001°34'612.7
2018-Mar-13 08:30N 51°56' E 001°25'5 9.2
2018-Mar-13 08:00N 51°57' E 001°18'1 1.3
2018-Mar-13 07:30N 51°58' E 001°18'0 0.0
2018-Mar-13 07:01N 51°58' E 001°18'0 0.0
2018-Mar-13 06:30N 51°58' E 001°18'0 0.0
2018-Mar-13 06:00N 51°58' E 001°18'0 0.0
2018-Mar-13 05:30N 51°58' E 001°18'0 0.0
2018-Mar-13 05:00N 51°58' E 001°18'0 0.0
2018-Mar-13 04:30N 51°58' E 001°18'0 0.0
2018-Mar-13 04:00N 51°58' E 001°18'0 0.0
2018-Mar-13 03:30N 51°58' E 001°18'0 0.0
2018-Mar-13 03:00N 51°58' E 001°18'0 0.0
2018-Mar-13 02:30N 51°58' E 001°18'0 0.0
2018-Mar-13 02:00N 51°58' E 001°18'0 0.0
2018-Mar-13 01:30N 51°58' E 001°18'0 0.0
2018-Mar-13 01:00N 51°58' E 001°18'0 0.0
2018-Mar-13 00:30N 51°58' E 001°18'0 0.0
2018-Mar-13 00:00N 51°58' E 001°18'0 0.0
2018-Mar-12 23:30N 51°58' E 001°18'0 0.0
2018-Mar-12 23:00N 51°58' E 001°18'0 0.0
2018-Mar-12 22:30N 51°58' E 001°18'0 0.0
2018-Mar-12 22:00N 51°58' E 001°18'0 0.0
2018-Mar-12 21:30N 51°58' E 001°18'0 0.0
2018-Mar-12 21:00N 51°58' E 001°18'0 0.0
2018-Mar-12 20:30N 51°58' E 001°18'0 0.0
2018-Mar-12 20:00N 51°58' E 001°18'0 0.0
2018-Mar-12 19:30N 51°58' E 001°18'0 0.0
2018-Mar-12 19:00N 51°58' E 001°18'0 0.0
2018-Mar-12 18:30N 51°58' E 001°18'0 0.0
2018-Mar-12 18:00N 51°58' E 001°18'0 0.0
2018-Mar-12 17:30N 51°58' E 001°18'0 0.0
2018-Mar-12 17:00N 51°58' E 001°18'0 0.0
2018-Mar-12 16:30N 51°58' E 001°18'0 0.0
2018-Mar-12 16:00N 51°58' E 001°18'0 0.0
2018-Mar-12 15:30N 51°58' E 001°18'0 0.0
2018-Mar-12 15:00N 51°58' E 001°18'0 0.0
2018-Mar-12 14:30N 51°58' E 001°18'0 0.0
2018-Mar-12 14:00N 51°58' E 001°18'0 0.0
2018-Mar-12 13:30N 51°58' E 001°18'0 0.0
2018-Mar-12 13:00N 51°58' E 001°18'0 0.0
2018-Mar-12 12:30N 51°58' E 001°18'0 0.0
2018-Mar-12 12:00N 51°58' E 001°18'0 0.0
2018-Mar-12 11:30N 51°58' E 001°18'0 0.0
2018-Mar-12 11:00N 51°58' E 001°18'0 0.0
2018-Mar-12 10:30N 51°58' E 001°18'0 0.0
2018-Mar-12 10:00N 51°58' E 001°18'0 0.0
2018-Mar-12 09:30N 51°58' E 001°18'0 0.0
2018-Mar-12 09:00N 51°58' E 001°18'0 0.0
2018-Mar-12 08:30N 51°58' E 001°18'0 0.0
2018-Mar-12 08:00N 51°58' E 001°18'0 0.0
2018-Mar-12 07:30N 51°58' E 001°18'0 0.0
2018-Mar-12 07:00N 51°58' E 001°18'0 0.0
2018-Mar-12 06:31N 51°58' E 001°18'0 0.0
2018-Mar-12 06:00N 51°58' E 001°18'0 0.0
2018-Mar-12 05:30N 51°58' E 001°18'0 0.0
2018-Mar-12 05:00N 51°58' E 001°18'0 0.0
2018-Mar-12 04:30N 51°58' E 001°18'0 0.0
2018-Mar-12 04:00N 51°58' E 001°18'0 0.0
2018-Mar-12 03:30N 51°58' E 001°18'0 0.0
2018-Mar-12 03:00N 51°58' E 001°18'0 0.0
2018-Mar-12 02:30N 51°58' E 001°18'0 0.0
2018-Mar-12 02:00N 51°58' E 001°18'0 0.0
2018-Mar-12 01:30N 51°58' E 001°18'0 0.0
2018-Mar-12 01:00N 51°58' E 001°18'0 0.0
2018-Mar-12 00:30N 51°58' E 001°18'0 0.0
2018-Mar-12 00:00N 51°58' E 001°18'0 0.0
2018-Mar-11 23:31N 51°58' E 001°18'0 0.0
2018-Mar-11 23:00N 51°58' E 001°18'0 0.0
2018-Mar-11 22:30N 51°58' E 001°18'0 0.0
2018-Mar-11 22:00N 51°58' E 001°18'0 0.0
2018-Mar-11 21:30N 51°58' E 001°18'0 0.0
2018-Mar-11 21:00N 51°58' E 001°18'0 0.0
2018-Mar-11 20:30N 51°58' E 001°18'0 0.0
2018-Mar-11 20:00N 51°58' E 001°18'0 0.0
2018-Mar-11 19:30N 51°58' E 001°18'0 0.0
2018-Mar-11 19:00N 51°58' E 001°18'0 0.7
2018-Mar-11 18:30N 51°57' E 001°18'3 5.4
2018-Mar-11 18:01N 51°56' E 001°21'714.4
2018-Mar-11 17:30N 51°56' E 001°33'5 9.5
2018-Mar-11 17:00N 51°52' E 001°36'2 4.3
2018-Mar-11 16:30N 51°52' E 001°39'3 5.9
2018-Mar-11 16:00N 51°54' E 001°43'1 1.6
2018-Mar-11 15:29N 51°54' E 001°42'0 0.1
2018-Mar-11 14:59N 51°54' E 001°42'0 0.0
2018-Mar-11 14:29N 51°54' E 001°42'0 0.1
2018-Mar-11 13:59N 51°54' E 001°42'0 0.0
2018-Mar-11 13:29N 51°54' E 001°42'0 0.1
2018-Mar-11 12:59N 51°54' E 001°42'0 0.2
2018-Mar-11 12:29N 51°54' E 001°42'0 0.1
2018-Mar-11 11:59N 51°54' E 001°42'0 0.1
2018-Mar-11 11:29N 51°54' E 001°42'0 0.0
2018-Mar-11 10:59N 51°54' E 001°42'0 0.1
2018-Mar-11 10:29N 51°54' E 001°42'0 0.0
2018-Mar-11 09:59N 51°54' E 001°42'0 0.0
2018-Mar-11 09:29N 51°54' E 001°42'0 0.0
2018-Mar-11 08:59N 51°54' E 001°42'0 0.1
2018-Mar-11 08:29N 51°54' E 001°42'0 0.0
2018-Mar-11 07:59N 51°54' E 001°42'0 0.2
2018-Mar-11 07:29N 51°54' E 001°42'0 0.3
2018-Mar-11 06:59N 51°54' E 001°42'0 0.1
2018-Mar-11 06:29N 51°54' E 001°42'0 0.1
2018-Mar-11 05:59N 51°54' E 001°42'0 0.0
2018-Mar-11 05:29N 51°54' E 001°42'0 0.0
2018-Mar-11 04:59N 51°54' E 001°42'0 0.0
2018-Mar-11 04:29N 51°54' E 001°42'0 0.0
2018-Mar-11 03:59N 51°54' E 001°42'0 0.0
2018-Mar-11 03:29N 51°54' E 001°42'0 0.1
2018-Mar-11 02:59N 51°54' E 001°42'0 0.1
2018-Mar-11 02:29N 51°54' E 001°42'1 2.2
2018-Mar-11 02:00N 51°53' E 001°43'4 8.3
2018-Mar-11 01:30N 51°50' E 001°48'5 9.6
2018-Mar-11 01:01N 51°46' E 001°49'5 9.8
2018-Mar-11 00:30N 51°41' E 001°50'5 9.7
2018-Mar-11 00:00N 51°36' E 001°51'5 9.5
2018-Mar-10 23:30N 51°32' E 001°56'5 9.4
2018-Mar-10 23:00N 51°28' E 001°60'5 9.7
2018-Mar-10 22:30N 51°24' E 002°04'5 9.3
2018-Mar-10 22:00N 51°22' E 002°11'5 9.0
2018-Mar-10 21:30N 51°21' E 002°18'4 8.4
2018-Mar-10 21:00N 51°22' E 002°24'4 8.1
2018-Mar-10 20:30N 51°23' E 002°30'4 8.4
2018-Mar-10 20:00N 51°23' E 002°37'4 8.4
2018-Mar-10 19:30N 51°22' E 002°44'510.8
2018-Mar-10 19:00N 51°23' E 002°52'816.2
2018-Mar-10 18:30N 51°24' E 003°05'816.5
2018-Mar-10 18:00N 51°24' E 003°18'816.0
2018-Mar-10 17:30N 51°25' E 003°31'713.0
2018-Mar-10 17:00N 51°26' E 003°41'611.7
2018-Mar-10 16:30N 51°21' E 003°47'612.5
2018-Mar-10 16:00N 51°23' E 003°57'4 8.1
2018-Mar-10 15:30N 51°25' E 004°02'510.3
2018-Mar-10 15:00N 51°23' E 004°10'4 8.5
2018-Mar-10 14:30N 51°21' E 004°16'0 0.5
2018-Mar-10 14:01N 51°21' E 004°16'0 0.0
2018-Mar-10 13:30N 51°21' E 004°16'0 0.0
2018-Mar-10 13:01N 51°21' E 004°16'0 0.0
2018-Mar-10 12:30N 51°21' E 004°16'0 0.0
2018-Mar-10 11:58N 51°21' E 004°16'0 0.0
2018-Mar-10 11:31N 51°21' E 004°16'0 0.0
2018-Mar-10 11:00N 51°21' E 004°16'0 0.0
2018-Mar-10 10:30N 51°21' E 004°16'0 0.0
2018-Mar-10 10:01N 51°21' E 004°16'0 0.0
2018-Mar-10 09:30N 51°21' E 004°16'0 0.0
2018-Mar-10 09:01N 51°21' E 004°16'0 0.0
2018-Mar-10 08:28N 51°21' E 004°16'0 0.0
2018-Mar-10 08:00N 51°21' E 004°16'0 0.0
2018-Mar-10 07:31N 51°21' E 004°16'0 0.0
2018-Mar-10 06:59N 51°21' E 004°16'0 0.0
2018-Mar-10 06:31N 51°21' E 004°16'0 0.0
2018-Mar-10 06:00N 51°21' E 004°16'0 0.0
2018-Mar-10 05:30N 51°21' E 004°16'0 0.0
2018-Mar-10 05:01N 51°21' E 004°16'0 0.0
2018-Mar-10 04:31N 51°21' E 004°16'0 0.0
2018-Mar-10 04:00N 51°21' E 004°16'0 0.0
2018-Mar-10 03:30N 51°21' E 004°16'0 0.0
2018-Mar-10 03:01N 51°21' E 004°16'0 0.0
2018-Mar-10 02:31N 51°21' E 004°16'0 0.0
2018-Mar-10 02:00N 51°21' E 004°16'0 0.0
2018-Mar-10 01:30N 51°21' E 004°16'0 0.0
2018-Mar-10 01:00N 51°21' E 004°16'0 0.0
2018-Mar-10 00:30N 51°21' E 004°16'0 0.0
2018-Mar-10 00:01N 51°21' E 004°16'0 0.0
2018-Mar-09 23:28N 51°21' E 004°16'0 0.0
2018-Mar-09 23:00N 51°21' E 004°16'0 0.0
2018-Mar-09 22:28N 51°21' E 004°16'0 0.0
2018-Mar-09 22:00N 51°21' E 004°16'0 0.0
2018-Mar-09 21:30N 51°21' E 004°16'0 0.0
2018-Mar-09 21:00N 51°21' E 004°16'0 0.0
2018-Mar-09 20:29N 51°21' E 004°16'0 0.0
2018-Mar-09 20:00N 51°21' E 004°16'0 0.0
2018-Mar-09 19:31N 51°21' E 004°16'0 0.0
2018-Mar-09 19:00N 51°21' E 004°16'0 0.0
2018-Mar-09 18:30N 51°21' E 004°16'0 0.0
2018-Mar-09 18:00N 51°21' E 004°16'0 0.9
2018-Mar-09 17:31N 51°21' E 004°15'4 7.7
2018-Mar-09 17:00N 51°24' E 004°10'611.1
2018-Mar-09 16:30N 51°25' E 004°02'611.7
2018-Mar-09 16:00N 51°21' E 003°54'714.6
2018-Mar-09 15:30N 51°23' E 003°43'611.0
2018-Mar-09 15:00N 51°26' E 003°35'713.8
2018-Mar-09 14:30N 51°24' E 003°24'917.4
2018-Mar-09 14:00N 51°24' E 003°10'816.7
2018-Mar-09 13:30N 51°25' E 002°57'815.3
2018-Mar-09 13:00N 51°24' E 002°45'611.8
2018-Mar-09 12:30N 51°22' E 002°36'1111.3
2018-Mar-09 11:30N 51°19' E 002°18'713.4
2018-Mar-09 11:00N 51°15' E 002°09'713.8
2018-Mar-09 10:30N 51°12' E 001°60'713.9
2018-Mar-09 10:00N 51°09' E 001°50'714.1
2018-Mar-09 09:31N 51°04' E 001°41'714.7
2018-Mar-09 09:01N 50°59' E 001°33'714.7
2018-Mar-09 08:31N 50°52' E 001°28'714.9
2018-Mar-09 08:01N 50°45' E 001°24'714.4
2018-Mar-09 07:31N 50°39' E 001°18'815.0
2018-Mar-09 07:01N 50°35' E 001°08'917.1
2018-Mar-09 06:30N 50°30' E 000°57'918.3
2018-Mar-09 06:01N 50°27' E 000°44'472821.1
2018-Mar-09 06:00N 50°24' W 000°30'3878.8 270 / 121004.410.8 7.6 5.4 7.0
2018-Mar-09 05:31N 50°25' E 000°30'918.2
2018-Mar-09 05:00N 50°22' E 000°16'918.3
2018-Mar-09 04:31N 50°20' E 000°02'918.5
2018-Mar-09 04:01N 50°18' W 000°12'918.7
2018-Mar-09 03:31N 50°16' W 000°26'1019.1
2018-Mar-09 03:01N 50°13' W 000°41'1019.5
2018-Mar-09 02:30N 50°11' W 000°56'1020.0
2018-Mar-09 02:01N 50°08' W 001°10'1120.4
2018-Mar-09 01:28N 50°05' W 001°27'1420.7
2018-Mar-09 00:46N 50°01' W 001°49'621.1
2018-Mar-09 00:28N 49°59' W 001°58'  

Dump ship's entire track history